createdAt,value
2023-03-28T00:01:11.905Z,23.83
2023-03-28T00:03:41.178Z,23.55
2023-03-28T00:06:16.868Z,23.67
2023-03-28T00:08:48.261Z,23.85
2023-03-28T00:11:20.273Z,23.57
2023-03-28T00:13:58.246Z,23.43
2023-03-28T00:16:39.582Z,23.30
2023-03-28T00:19:11.901Z,23.43
2023-03-28T00:21:41.696Z,23.17
2023-03-28T00:24:14.025Z,22.93
2023-03-28T00:26:43.636Z,23.29
2023-03-28T00:29:21.525Z,23.35
2023-03-28T00:31:50.506Z,23.27
2023-03-28T00:34:19.290Z,22.97
2023-03-28T00:36:47.714Z,23.18
2023-03-28T00:39:16.651Z,23.27
2023-03-28T00:41:45.448Z,23.15
2023-03-28T00:44:51.968Z,23.20
2023-03-28T00:47:44.083Z,23.16
2023-03-28T00:50:37.025Z,23.42
2023-03-28T00:53:15.896Z,23.43
2023-03-28T00:55:56.167Z,23.56
2023-03-28T00:58:27.192Z,23.51
2023-03-28T01:00:56.524Z,23.38
2023-03-28T01:03:30.757Z,23.51
2023-03-28T01:06:02.035Z,23.18
2023-03-28T01:08:44.549Z,23.53
2023-03-28T01:11:13.731Z,23.41
2023-03-28T01:13:46.583Z,23.32
2023-03-28T01:16:16.155Z,23.30
2023-03-28T01:18:51.843Z,23.34
2023-03-28T01:22:06.761Z,23.44
2023-03-28T01:25:14.999Z,23.36
2023-03-28T01:28:03.869Z,23.44
2023-03-28T01:31:16.985Z,23.25
2023-03-28T01:34:36.036Z,23.20
2023-03-28T01:37:37.526Z,23.26
2023-03-28T01:40:37.358Z,23.40
2023-03-28T01:43:16.404Z,23.26
2023-03-28T01:45:59.506Z,23.21
2023-03-28T01:48:43.205Z,23.22
2023-03-28T01:51:57.677Z,23.27
2023-03-28T01:54:33.674Z,23.31
2023-03-28T01:57:12.984Z,23.29
2023-03-28T01:59:49.423Z,23.44
2023-03-28T02:03:00.856Z,23.37
2023-03-28T02:05:36.105Z,23.33
2023-03-28T02:08:11.054Z,23.34
2023-03-28T02:10:44.645Z,23.70
2023-03-28T02:14:07.540Z,23.71
2023-03-28T02:17:09.659Z,23.49
2023-03-28T02:20:00.009Z,23.58
2023-03-28T02:23:14.499Z,23.22
2023-03-28T02:26:09.354Z,23.40
2023-03-28T02:28:58.237Z,23.43
2023-03-28T02:31:50.483Z,23.40
2023-03-28T02:34:20.236Z,23.15
2023-03-28T02:36:59.722Z,23.26
2023-03-28T02:39:46.965Z,23.37
2023-03-28T02:42:43.090Z,23.87
2023-03-28T02:45:22.616Z,23.30
2023-03-28T02:48:02.637Z,23.22
2023-03-28T02:51:30.577Z,23.38
2023-03-28T02:54:43.398Z,23.45
2023-03-28T02:57:35.279Z,23.46
2023-03-28T03:00:12.582Z,23.47
2023-03-28T03:02:51.837Z,23.44
2023-03-28T03:05:22.265Z,23.54
2023-03-28T03:07:51.702Z,23.27
2023-03-28T03:10:22.432Z,23.37
2023-03-28T03:12:51.107Z,23.04
2023-03-28T03:15:20.241Z,23.08
2023-03-28T03:17:59.118Z,23.27
2023-03-28T03:20:34.364Z,23.29
2023-03-28T03:23:04.609Z,23.20
2023-03-28T03:25:36.122Z,23.25
2023-03-28T03:28:25.199Z,23.27
2023-03-28T03:30:54.145Z,23.28
2023-03-28T03:33:42.727Z,23.19
2023-03-28T03:36:17.301Z,23.38
2023-03-28T03:38:48.028Z,23.33
2023-03-28T03:41:22.939Z,23.40
2023-03-28T03:43:51.624Z,23.19
2023-03-28T03:46:20.702Z,23.29
2023-03-28T03:48:50.899Z,23.33
2023-03-28T03:51:20.490Z,23.22
2023-03-28T03:53:52.304Z,23.51
2023-03-28T03:56:24.983Z,23.61
2023-03-28T03:59:02.533Z,23.51
2023-03-28T04:01:34.530Z,23.30
2023-03-28T04:04:26.627Z,23.61
2023-03-28T04:07:21.576Z,23.42
2023-03-28T04:09:53.075Z,23.46
2023-03-28T04:12:21.974Z,23.53
2023-03-28T04:14:52.642Z,23.51
2023-03-28T04:17:36.614Z,23.44
2023-03-28T04:20:13.470Z,23.52
2023-03-28T04:23:08.674Z,23.71
2023-03-28T04:25:41.910Z,23.80
2023-03-28T04:28:28.315Z,23.59
2023-03-28T04:31:05.326Z,23.50
2023-03-28T04:34:00.637Z,23.78
2023-03-28T04:36:32.424Z,23.72
2023-03-28T04:39:04.970Z,23.99
2023-03-28T04:41:55.777Z,23.68
2023-03-28T04:44:24.654Z,23.72
2023-03-28T04:47:01.225Z,23.71
2023-03-28T04:49:30.137Z,23.97
2023-03-28T04:51:58.774Z,23.97
2023-03-28T04:54:27.639Z,24.14
2023-03-28T04:57:07.496Z,24.02
2023-03-28T04:59:47.846Z,23.93
2023-03-28T05:02:30.661Z,24.17
2023-03-28T05:05:04.557Z,24.09
2023-03-28T05:07:34.499Z,24.45
2023-03-28T05:10:03.874Z,24.25
2023-03-28T05:12:37.816Z,24.30
2023-03-28T05:15:07.551Z,24.37
2023-03-28T05:17:48.049Z,24.43
2023-03-28T05:20:22.850Z,24.43
2023-03-28T05:22:56.166Z,24.41
2023-03-28T05:25:26.386Z,24.36
2023-03-28T05:27:56.848Z,24.36
2023-03-28T05:30:26.616Z,24.46
2023-03-28T05:32:58.786Z,24.63
2023-03-28T05:35:30.322Z,24.61
2023-03-28T05:37:59.173Z,24.53
2023-03-28T05:40:27.889Z,24.65
2023-03-28T05:42:56.460Z,24.59
2023-03-28T05:45:25.891Z,24.68
2023-03-28T05:48:01.424Z,24.72
2023-03-28T05:50:31.970Z,24.83
2023-03-28T05:53:06.723Z,24.78
2023-03-28T05:55:36.121Z,24.64
2023-03-28T05:58:06.490Z,25.01
2023-03-28T06:00:39.256Z,24.99
2023-03-28T06:03:09.744Z,25.05
2023-03-28T06:05:46.687Z,25.06
2023-03-28T06:08:23.740Z,25.06
2023-03-28T06:10:52.809Z,25.30
2023-03-28T06:13:29.225Z,25.51
2023-03-28T06:15:58.431Z,25.92
2023-03-28T06:18:33.391Z,25.75
2023-03-28T06:21:02.643Z,25.31
2023-03-28T06:23:31.338Z,24.83
2023-03-28T06:26:02.851Z,24.32
2023-03-28T06:28:38.797Z,24.75
2023-03-28T06:31:30.243Z,24.46
2023-03-28T06:33:58.792Z,24.32
2023-03-28T06:36:27.634Z,24.18
2023-03-28T06:38:58.572Z,24.22
2023-03-28T06:41:30.142Z,23.94
2023-03-28T06:43:59.190Z,23.91
2023-03-28T06:46:46.772Z,23.89
2023-03-28T06:49:15.510Z,23.76
2023-03-28T06:52:13.461Z,23.85
2023-03-28T06:54:44.432Z,23.67
2023-03-28T06:57:14.520Z,23.27
2023-03-28T06:59:43.751Z,23.30
2023-03-28T07:02:19.256Z,23.31
2023-03-28T07:04:48.353Z,23.13
2023-03-28T07:07:17.698Z,23.23
2023-03-28T07:09:49.126Z,23.12
2023-03-28T07:12:19.193Z,23.47
2023-03-28T07:14:47.906Z,23.72
2023-03-28T07:17:16.989Z,23.50
2023-03-28T07:19:46.255Z,23.54
2023-03-28T07:22:15.639Z,23.05
2023-03-28T07:24:44.097Z,22.96
2023-03-28T07:27:16.596Z,22.54
2023-03-28T07:29:47.475Z,22.59
2023-03-28T07:32:17.289Z,22.67
2023-03-28T07:34:47.433Z,22.16
2023-03-28T07:37:22.918Z,22.28
2023-03-28T07:40:14.675Z,22.43
2023-03-28T07:42:43.975Z,22.51
2023-03-28T07:45:12.562Z,22.19
2023-03-28T07:47:41.849Z,22.16
2023-03-28T07:50:10.725Z,22.20
2023-03-28T07:52:45.874Z,22.50
2023-03-28T07:55:15.264Z,22.29
2023-03-28T07:57:49.132Z,22.33
2023-03-28T08:00:28.550Z,21.63
2023-03-28T08:03:20.352Z,21.89
2023-03-28T08:05:52.289Z,22.21
2023-03-28T08:08:23.388Z,22.01
2023-03-28T08:11:14.963Z,21.76
2023-03-28T08:13:44.063Z,21.54
2023-03-28T08:16:23.626Z,21.34
2023-03-28T08:19:09.372Z,21.43
2023-03-28T08:21:48.970Z,21.74
2023-03-28T08:24:28.858Z,22.09
2023-03-28T08:27:09.281Z,21.07
2023-03-28T08:29:38.037Z,20.90
2023-03-28T08:32:07.999Z,20.58
2023-03-28T08:34:38.293Z,20.22
2023-03-28T08:37:13.247Z,20.28
2023-03-28T08:39:45.937Z,20.71
2023-03-28T08:42:46.859Z,20.33
2023-03-28T08:45:38.745Z,20.45
2023-03-28T08:48:31.453Z,20.17
2023-03-28T08:51:28.925Z,20.35
2023-03-28T08:54:14.850Z,20.50
2023-03-28T08:56:55.957Z,20.77
2023-03-28T08:59:48.419Z,20.67
2023-03-28T09:02:21.872Z,20.84
2023-03-28T09:04:50.867Z,21.10
2023-03-28T09:07:56.204Z,20.97
2023-03-28T09:10:42.817Z,20.78
2023-03-28T09:13:52.495Z,20.45
2023-03-28T09:16:57.575Z,20.28
2023-03-28T09:19:48.248Z,20.63
2023-03-28T09:23:01.342Z,21.23
2023-03-28T09:25:58.872Z,19.65
2023-03-28T09:28:55.034Z,19.50
2023-03-28T09:31:28.280Z,19.37
2023-03-28T09:34:00.602Z,19.58
2023-03-28T09:36:48.916Z,19.17
2023-03-28T09:39:54.675Z,19.82
2023-03-28T09:42:56.006Z,20.04
2023-03-28T09:45:36.438Z,20.19
2023-03-28T09:48:28.854Z,18.45
2023-03-28T09:51:02.630Z,18.53
2023-03-28T09:53:34.563Z,19.08
2023-03-28T09:56:16.983Z,19.52
2023-03-28T09:58:59.942Z,19.36
2023-03-28T10:01:49.412Z,18.84
2023-03-28T10:04:39.352Z,19.18
2023-03-28T10:07:43.267Z,18.13
2023-03-28T10:10:25.346Z,17.26
2023-03-28T10:13:10.050Z,18.67
2023-03-28T10:15:47.219Z,19.46
2023-03-28T10:18:34.071Z,20.10
2023-03-28T10:21:30.457Z,20.45
2023-03-28T10:24:13.314Z,20.45
2023-03-28T10:26:44.510Z,20.83
2023-03-28T10:29:13.117Z,20.70
2023-03-28T10:31:47.922Z,20.67
2023-03-28T10:34:39.303Z,20.37
2023-03-28T10:37:37.543Z,19.50
2023-03-28T10:40:32.553Z,19.55
2023-03-28T10:43:14.850Z,19.25
2023-03-28T10:45:51.082Z,17.87
2023-03-28T10:48:39.694Z,17.85
2023-03-28T10:51:22.258Z,17.33
2023-03-28T10:54:06.766Z,16.68
2023-03-28T10:56:52.951Z,16.31
2023-03-28T11:00:07.005Z,16.23
2023-03-28T11:03:06.477Z,16.07
2023-03-28T11:06:08.965Z,16.13
2023-03-28T11:09:10.912Z,15.66
2023-03-28T11:12:56.780Z,15.85
2023-03-28T11:15:41.422Z,15.58
2023-03-28T11:24:29.422Z,15.62
2023-03-28T11:27:54.484Z,15.68
2023-03-28T11:30:36.501Z,16.28
2023-03-28T11:33:44.115Z,16.03
2023-03-28T11:36:53.735Z,16.04
2023-03-28T11:39:35.299Z,15.54
2023-03-28T11:42:10.316Z,15.87
2023-03-28T11:45:12.931Z,15.26
2023-03-28T11:48:19.527Z,15.97
2023-03-28T11:51:19.504Z,16.31
2023-03-28T11:54:32.474Z,16.61
2023-03-28T11:57:13.228Z,16.96
2023-03-28T12:00:33.819Z,15.73
2023-03-28T12:03:25.956Z,16.14
2023-03-28T12:06:21.611Z,16.08
2023-03-28T12:09:13.659Z,15.92
2023-03-28T12:12:02.485Z,15.97
2023-03-28T12:14:45.032Z,15.73
2023-03-28T12:17:55.536Z,16.39
2023-03-28T12:21:08.451Z,15.73
2023-03-28T12:24:30.092Z,15.74
2023-03-28T12:27:09.835Z,15.71
2023-03-28T12:29:56.881Z,15.92
2023-03-28T12:32:43.902Z,16.26
2023-03-28T12:35:51.392Z,15.95
2023-03-28T12:38:29.392Z,15.40
2023-03-28T12:41:23.233Z,16.13
2023-03-28T12:44:21.028Z,16.62
2023-03-28T12:46:56.956Z,17.12
2023-03-28T12:49:48.455Z,16.64
2023-03-28T12:52:32.822Z,16.35
2023-03-28T12:55:31.762Z,15.81
2023-03-28T12:58:24.015Z,15.87
2023-03-28T13:01:07.442Z,15.66
2023-03-28T13:04:00.538Z,15.57
2023-03-28T13:07:01.332Z,15.57
2023-03-28T13:10:14.995Z,15.54
2023-03-28T13:13:10.988Z,15.50
2023-03-28T13:15:59.393Z,15.80
2023-03-28T13:18:31.983Z,16.04
2023-03-28T13:21:04.562Z,15.49
2023-03-28T13:23:46.364Z,15.64
2023-03-28T13:26:15.219Z,15.54
2023-03-28T13:28:47.271Z,15.23
2023-03-28T13:31:25.850Z,15.37
2023-03-28T13:34:01.193Z,16.00
2023-03-28T13:36:34.534Z,16.08
2023-03-28T13:39:10.074Z,15.27
2023-03-28T13:41:42.008Z,15.21
2023-03-28T13:44:20.719Z,15.42
2023-03-28T13:46:50.778Z,15.43
2023-03-28T13:49:51.506Z,15.72
2023-03-28T13:52:24.224Z,15.39
2023-03-28T13:54:55.883Z,15.51
2023-03-28T13:57:28.006Z,15.37
2023-03-28T14:00:01.686Z,15.21
2023-03-28T14:02:52.950Z,15.50
2023-03-28T14:05:30.727Z,16.01
2023-03-28T14:08:24.244Z,16.38
2023-03-28T14:10:53.038Z,16.53
2023-03-28T14:13:28.908Z,16.75
2023-03-28T14:15:57.511Z,17.01
2023-03-28T14:18:36.590Z,17.14
2023-03-28T14:21:08.613Z,17.21
2023-03-28T14:23:39.869Z,17.61
2023-03-28T14:26:18.942Z,17.56
2023-03-28T14:28:47.927Z,17.46
2023-03-28T14:31:30.431Z,17.89
2023-03-28T14:34:01.233Z,18.04
2023-03-28T14:36:31.411Z,18.56
2023-03-28T14:39:13.832Z,18.64
2023-03-28T14:41:42.618Z,18.76
2023-03-28T14:44:12.910Z,18.57
2023-03-28T14:46:41.433Z,18.95
2023-03-28T14:49:16.184Z,19.03
2023-03-28T14:51:48.803Z,19.24
2023-03-28T14:54:27.894Z,19.10
2023-03-28T14:56:57.489Z,19.17
2023-03-28T14:59:41.022Z,19.53
2023-03-28T15:02:26.610Z,19.59
2023-03-28T15:04:59.082Z,19.42
2023-03-28T15:07:28.544Z,19.47
2023-03-28T15:10:10.459Z,19.48
2023-03-28T15:13:18.397Z,19.46
2023-03-28T15:15:47.819Z,19.53
2023-03-28T15:18:25.429Z,19.44
2023-03-28T15:20:57.383Z,19.36
2023-03-28T15:23:32.265Z,19.55
2023-03-28T15:26:14.261Z,19.63
2023-03-28T15:28:42.780Z,19.07
2023-03-28T15:31:11.959Z,18.87
2023-03-28T15:33:40.449Z,18.73
2023-03-28T15:36:32.821Z,18.83
2023-03-28T15:39:22.919Z,18.74
2023-03-28T15:42:20.330Z,18.92
2023-03-28T15:44:57.951Z,18.85
2023-03-28T15:47:32.088Z,18.70
2023-03-28T15:50:07.013Z,19.11
2023-03-28T15:52:35.952Z,19.25
2023-03-28T15:55:04.824Z,19.27
2023-03-28T15:57:33.701Z,19.35
2023-03-28T16:00:02.234Z,19.88
2023-03-28T16:02:43.917Z,19.68
2023-03-28T16:05:15.496Z,19.82
2023-03-28T16:07:48.640Z,19.93
2023-03-28T16:10:21.816Z,20.12
2023-03-28T16:13:14.657Z,19.90
2023-03-28T16:16:07.110Z,19.98
2023-03-28T16:18:58.518Z,19.74
2023-03-28T16:21:27.560Z,19.83
2023-03-28T16:23:56.458Z,19.81
2023-03-28T16:26:25.029Z,19.30
2023-03-28T16:28:54.281Z,18.94
2023-03-28T16:31:22.884Z,18.86
2023-03-28T16:33:51.840Z,18.77
2023-03-28T16:36:20.491Z,19.62
2023-03-28T16:38:49.982Z,18.94
2023-03-28T16:41:18.447Z,19.43
2023-03-28T16:43:47.950Z,19.44
2023-03-28T16:46:16.679Z,19.42
2023-03-28T16:48:46.045Z,19.71
2023-03-28T16:51:14.654Z,19.95
2023-03-28T16:53:43.580Z,19.90
2023-03-28T16:56:12.473Z,20.03
2023-03-28T16:58:42.255Z,20.28
2023-03-28T17:01:19.310Z,20.35
2023-03-28T17:03:49.180Z,20.85
2023-03-28T17:06:18.136Z,20.86
2023-03-28T17:08:47.147Z,21.00
2023-03-28T17:11:15.784Z,20.97
2023-03-28T17:13:47.912Z,21.63
2023-03-28T17:16:17.132Z,21.77
2023-03-28T17:18:46.231Z,21.98
2023-03-28T17:21:15.183Z,22.27
2023-03-28T17:23:45.910Z,22.17
2023-03-28T17:26:14.864Z,22.46
2023-03-28T17:28:44.272Z,22.68
2023-03-28T17:31:16.945Z,22.63
2023-03-28T17:33:47.334Z,22.63
2023-03-28T17:36:25.418Z,22.82
2023-03-28T17:38:56.929Z,23.39
2023-03-28T17:41:28.070Z,23.51
2023-03-28T17:43:57.646Z,23.67
2023-03-28T17:46:26.944Z,23.58
2023-03-28T17:48:56.178Z,23.91
2023-03-28T17:51:24.872Z,24.12
2023-03-28T17:53:54.321Z,24.36
2023-03-28T17:56:24.705Z,24.46
2023-03-28T17:58:53.616Z,24.63
2023-03-28T18:01:22.625Z,24.76
2023-03-28T18:03:51.783Z,24.53
2023-03-28T18:06:40.569Z,24.84
2023-03-28T18:09:09.487Z,24.81
2023-03-28T18:11:39.602Z,24.98
2023-03-28T18:14:08.988Z,25.10
2023-03-28T18:16:38.962Z,25.31
2023-03-28T18:19:12.687Z,25.33
2023-03-28T18:21:41.547Z,25.37
2023-03-28T18:24:12.540Z,25.58
2023-03-28T18:26:41.316Z,25.37
2023-03-28T18:29:11.732Z,25.63
2023-03-28T18:31:41.869Z,25.41
2023-03-28T18:34:12.150Z,25.70
2023-03-28T18:36:42.270Z,25.89
2023-03-28T18:39:11.792Z,26.12
2023-03-28T18:41:40.421Z,25.89
2023-03-28T18:44:11.387Z,26.12
2023-03-28T18:46:40.576Z,26.16
2023-03-28T18:49:09.928Z,26.33
2023-03-28T18:51:39.910Z,26.20
2023-03-28T18:54:09.343Z,26.71
2023-03-28T18:56:38.239Z,26.48
2023-03-28T18:59:07.259Z,26.80
2023-03-28T19:01:38.336Z,26.76
2023-03-28T19:04:08.135Z,26.83
2023-03-28T19:06:36.940Z,26.96
2023-03-28T19:09:06.510Z,27.09
2023-03-28T19:11:35.280Z,27.20
2023-03-28T19:14:04.441Z,27.14
2023-03-28T19:16:33.165Z,27.15
2023-03-28T19:19:02.761Z,27.43
2023-03-28T19:21:31.616Z,26.96
2023-03-28T19:24:01.104Z,27.30
2023-03-28T19:26:30.239Z,27.36
2023-03-28T19:28:59.588Z,27.28
2023-03-28T19:31:28.459Z,27.24
2023-03-28T19:33:57.522Z,27.26
2023-03-28T19:36:26.477Z,27.35
2023-03-28T19:38:55.759Z,27.44
2023-03-28T19:41:24.760Z,27.26
2023-03-28T19:43:55.607Z,27.43
2023-03-28T19:46:35.260Z,27.31
2023-03-28T19:49:06.987Z,27.63
2023-03-28T19:51:36.312Z,27.36
2023-03-28T19:54:05.801Z,27.33
2023-03-28T19:56:35.036Z,27.72
2023-03-28T19:59:04.681Z,27.72
2023-03-28T20:01:33.780Z,27.58
2023-03-28T20:04:03.021Z,27.68
2023-03-28T20:06:31.729Z,27.67
2023-03-28T20:09:01.404Z,27.48
2023-03-28T20:11:30.339Z,27.52
2023-03-28T20:13:59.746Z,27.75
2023-03-28T20:16:29.076Z,27.73
2023-03-28T20:18:58.716Z,27.85
2023-03-28T20:21:30.637Z,27.96
2023-03-28T20:24:01.117Z,27.78
2023-03-28T20:26:29.729Z,28.03
2023-03-28T20:28:59.713Z,27.85
2023-03-28T20:31:28.712Z,27.86
2023-03-28T20:33:57.650Z,27.93
2023-03-28T20:36:26.441Z,28.07
2023-03-28T20:38:56.717Z,27.84
2023-03-28T20:41:27.927Z,27.84
2023-03-28T20:44:03.958Z,27.92
2023-03-28T20:46:34.952Z,28.03
2023-03-28T20:49:06.414Z,27.88
2023-03-28T20:51:39.206Z,27.85
2023-03-28T20:54:09.110Z,27.93
2023-03-28T20:56:37.733Z,27.98
2023-03-28T20:59:06.817Z,28.04
2023-03-28T21:01:39.734Z,27.67
2023-03-28T21:04:08.824Z,27.76
2023-03-28T21:06:38.499Z,27.86
2023-03-28T21:09:13.708Z,28.00
2023-03-28T21:11:42.556Z,27.82
2023-03-28T21:14:13.721Z,27.73
2023-03-28T21:16:42.724Z,27.70
2023-03-28T21:19:11.731Z,27.65
2023-03-28T21:21:40.754Z,27.62
2023-03-28T21:24:09.664Z,27.67
2023-03-28T21:26:38.220Z,27.84
2023-03-28T21:29:07.060Z,27.73
2023-03-28T21:31:35.594Z,27.81
2023-03-28T21:34:04.520Z,27.79
2023-03-28T21:36:33.596Z,27.66
2023-03-28T21:39:02.830Z,27.74
2023-03-28T21:41:31.441Z,27.80
2023-03-28T21:44:00.822Z,27.71
2023-03-28T21:46:29.438Z,27.80
2023-03-28T21:48:58.478Z,27.83
2023-03-28T21:51:27.243Z,27.86
2023-03-28T21:53:56.139Z,27.93
2023-03-28T21:56:24.748Z,27.73
2023-03-28T21:58:53.626Z,27.75
2023-03-28T22:01:22.109Z,27.55
2023-03-28T22:03:51.212Z,27.71
2023-03-28T22:06:19.689Z,27.79
2023-03-28T22:08:52.770Z,27.68
2023-03-28T22:11:28.300Z,27.76
2023-03-28T22:14:02.577Z,27.93
2023-03-28T22:16:35.153Z,27.61
2023-03-28T22:19:06.076Z,27.76
2023-03-28T22:21:34.826Z,27.90
2023-03-28T22:24:06.414Z,27.73
2023-03-28T22:26:36.226Z,27.99
2023-03-28T22:29:05.312Z,27.89
2023-03-28T22:31:33.981Z,27.89
2023-03-28T22:34:03.094Z,27.92
2023-03-28T22:36:31.752Z,27.96
2023-03-28T22:39:00.795Z,27.97
2023-03-28T22:41:32.240Z,27.83
2023-03-28T22:44:01.434Z,27.95
2023-03-28T22:46:30.204Z,28.05
2023-03-28T22:48:59.074Z,28.00
2023-03-28T22:51:28.392Z,27.89
2023-03-28T22:54:00.655Z,27.92
2023-03-28T22:56:29.447Z,27.94
2023-03-28T22:59:01.674Z,28.08
2023-03-28T23:01:30.436Z,27.88
2023-03-28T23:03:59.681Z,28.00
2023-03-28T23:06:28.802Z,27.91
2023-03-28T23:08:58.933Z,27.82
2023-03-28T23:11:27.781Z,27.79
2023-03-28T23:13:56.788Z,27.92
2023-03-28T23:16:25.298Z,27.58
2023-03-28T23:18:54.175Z,27.61
2023-03-28T23:21:23.200Z,27.74
2023-03-28T23:23:53.570Z,27.68
2023-03-28T23:26:23.180Z,27.69
2023-03-28T23:28:52.069Z,27.65
2023-03-28T23:31:21.142Z,27.84
2023-03-28T23:33:50.064Z,27.73
2023-03-28T23:36:21.274Z,27.87
2023-03-28T23:38:50.310Z,27.76
2023-03-28T23:41:18.887Z,27.80
2023-03-28T23:43:47.800Z,27.68
2023-03-28T23:46:16.495Z,27.73
2023-03-28T23:48:45.469Z,27.75
2023-03-28T23:51:14.383Z,27.86
2023-03-28T23:53:43.370Z,27.84
2023-03-28T23:56:12.291Z,27.58
2023-03-28T23:58:41.387Z,27.71
